YM Venus — 9HCB8 — position and weather

sailwx.info

Track history (hours):
 
Tides and Currents Weather Stations Pressure Air Temp Water Temp Dewpoint Dewpoint Depression Visibility Wind Speed Wind Dir Waves Ship Positions

YM Venus

Last reported at 2014-Jul-24 10:26 UTC. Time now 2014-Jul-24 10:46 UTC.
Position N 40°13' E 004°53'.

Length 105 m; draft 6.5 m.

Type: Ship (hazmat cat B). MMSI: 215826000.

Date/timePositionNaut miles runAvg speedWind from/ knotsBaromVisibWave heightAir tempDewpointWater temp
2014-Jul-24 10:26N 40°13' E 004°53'1111.8
2014-Jul-24 09:32N 40°19' E 004°41'1212.0
2014-Jul-24 08:33N 40°24' E 004°27'1212.1
2014-Jul-24 07:33N 40°29' E 004°13'1312.2
2014-Jul-24 06:27N 40°35' E 003°57'1312.6
2014-Jul-24 05:28N 40°41' E 003°42'1010.8
2014-Jul-24 04:33N 40°45' E 003°30'1212.0
2014-Jul-24 03:33N 40°51' E 003°16'1312.9
2014-Jul-24 02:33N 40°56' E 003°01'1111.0
2014-Jul-24 01:33N 41°01' E 002°48'1211.7
2014-Jul-24 00:33N 41°07' E 002°35'1111.4
2014-Jul-23 23:33N 41°12' E 002°21'1110.8
2014-Jul-23 22:33N 41°19' E 002°10'1 0.0
2014-Jul-22 23:19N 41°20' E 002°09'0 0.0
2014-Jul-22 22:11N 41°20' E 002°09'1 1.5
2014-Jul-22 21:33N 41°20' E 002°10'1 0.3
2014-Jul-22 18:13N 41°20' E 002°11'0 0.0
2014-Jul-22 17:07N 41°20' E 002°11'0 0.0
2014-Jul-22 16:19N 41°20' E 002°11'0 0.0
2014-Jul-22 15:31N 41°20' E 002°11'0 0.0
2014-Jul-22 13:19N 41°20' E 002°11'0 0.0
2014-Jul-22 11:13N 41°20' E 002°11'0 0.0
2014-Jul-22 10:31N 41°20' E 002°11'0 0.0
2014-Jul-22 09:31N 41°20' E 002°11'0 0.0
2014-Jul-22 08:31N 41°20' E 002°11'0 0.0
2014-Jul-21 23:25N 41°20' E 002°11'0 0.0
2014-Jul-21 21:31N 41°20' E 002°11'0 0.0
2014-Jul-21 18:31N 41°20' E 002°11'0 0.0
2014-Jul-21 17:31N 41°20' E 002°11'0 0.0
2014-Jul-21 16:31N 41°20' E 002°11'0 0.0
2014-Jul-21 15:31N 41°20' E 002°11'0 0.0
2014-Jul-21 13:13N 41°20' E 002°11'0 0.0
2014-Jul-20 21:25N 41°20' E 002°11'0 0.1
2014-Jul-20 18:13N 41°20' E 002°11'0 0.0
2014-Jul-20 17:31N 41°20' E 002°11'0 0.0
2014-Jul-20 16:13N 41°20' E 002°11'0 0.1
2014-Jul-20 14:31N 41°20' E 002°11'0 0.0
2014-Jul-20 13:31N 41°20' E 002°11'0 0.0
2014-Jul-20 11:25N 41°20' E 002°11'0 0.0
2014-Jul-20 10:31N 41°20' E 002°11'0 0.0
2014-Jul-20 06:13N 41°19' E 002°11'0 0.1
2014-Jul-20 05:31N 41°20' E 002°11'0 0.1
2014-Jul-20 04:31N 41°20' E 002°11'0 0.0
2014-Jul-20 03:31N 41°20' E 002°11'0 0.0
2014-Jul-20 02:31N 41°20' E 002°11'0 0.0
2014-Jul-20 01:25N 41°20' E 002°11'0 0.0
2014-Jul-20 00:19N 41°20' E 002°11'0 0.1
2014-Jul-19 23:31N 41°20' E 002°11'0 0.0
2014-Jul-19 22:31N 41°19' E 002°11'0 0.1
2014-Jul-19 21:31N 41°19' E 002°11'4 4.3
2014-Jul-19 20:33N 41°15' E 002°11'1312.6
2014-Jul-19 19:33N 41°04' E 002°02'1313.1
2014-Jul-19 18:33N 40°53' E 001°55'1212.0
2014-Jul-19 17:33N 40°42' E 001°48'1312.6
2014-Jul-19 16:33N 40°31' E 001°40'1312.8
2014-Jul-19 15:33N 40°19' E 001°33'1212.5
2014-Jul-19 14:33N 40°08' E 001°25'1212.2
2014-Jul-19 13:33N 39°57' E 001°18'1212.1
2014-Jul-19 12:33N 39°46' E 001°11'1512.2
2014-Jul-19 11:19N 39°33' E 001°02'2512.5
2014-Jul-19 09:21N 39°11' E 000°47'1312.4
2014-Jul-19 08:17N 38°59' E 000°40'1212.3
2014-Jul-19 07:20N 38°49' E 000°33'1111.7
2014-Jul-19 06:25N 38°40' E 000°26'1011.9
2014-Jul-19 05:33N 38°31' E 000°19'2914.5
2014-Jul-19 03:31N 38°07' W 000°03'1312.5
2014-Jul-19 02:29N 37°56' W 000°11'1212.1
2014-Jul-19 01:31N 37°46' W 000°20'1212.3
2014-Jul-19 00:31N 37°36' W 000°28'25111.9
2014-Jul-18 03:26N 35°56' W 005°17'3 3.6
2014-Jul-18 02:33N 35°54' W 005°19'0 0.0
2014-Jul-18 01:33N 35°54' W 005°19'0 0.0
2014-Jul-18 00:34N 35°54' W 005°19'  
2014-Jul-15 16:32N 36°30' W 001°57'3912.2
2014-Jul-15 13:22N 36°38' W 001°10'1012.0
2014-Jul-15 12:33N 36°40' W 000°58'1212.1
2014-Jul-15 11:33N 36°43' W 000°44'1212.0
2014-Jul-15 10:33N 36°46' W 000°29'1312.1
2014-Jul-15 09:31N 36°50' W 000°14'9 9.8
2014-Jul-15 08:33N 36°53' W 000°03'2511.3
2014-Jul-15 06:22N 37°00' E 000°26'1011.5
2014-Jul-15 05:27N 37°02' E 000°39'3311.5
2014-Jul-15 02:33N 37°11' E 001°19'1111.3
2014-Jul-15 01:33N 37°14' E 001°33'1212.0
2014-Jul-15 00:33N 37°17' E 001°48'1512.5
2014-Jul-14 23:23N 37°21' E 002°05'911.4
2014-Jul-14 22:33N 37°24' E 002°17'1312.1
2014-Jul-14 21:30N 37°27' E 002°32'1112.0
2014-Jul-14 20:33N 37°30' E 002°46'1211.9
2014-Jul-14 19:33N 37°33' E 003°01'1211.9
2014-Jul-14 18:33N 37°36' E 003°15'1511.8
2014-Jul-14 17:15N 37°40' E 003°34'912.1
2014-Jul-14 16:30N 37°42' E 003°45'17 8.5
2014-Jul-14 14:32N 37°45' E 004°06'  
Track history (hours):
 
Tides and Currents Weather Stations Pressure Air Temp Water Temp Dewpoint Dewpoint Depression Visibility Wind Speed Wind Dir Waves Ship Positions

YM Venus

Last reported at 2014-Jul-24 10:26 UTC. Time now 2014-Jul-24 10:46 UTC.
Position N 40°13' E 004°53'.

Length 105 m; draft 6.5 m.

Type: Ship (hazmat cat B). MMSI: 215826000.

Date/timePositionNaut miles runAvg speedWind from/ knotsBaromVisibWave heightAir tempDewpointWater temp
2014-Jul-24 10:26N 40°13' E 004°53'1111.8
2014-Jul-24 09:32N 40°19' E 004°41'1212.0
2014-Jul-24 08:33N 40°24' E 004°27'1212.1
2014-Jul-24 07:33N 40°29' E 004°13'1312.2
2014-Jul-24 06:27N 40°35' E 003°57'1312.6
2014-Jul-24 05:28N 40°41' E 003°42'1010.8
2014-Jul-24 04:33N 40°45' E 003°30'1212.0
2014-Jul-24 03:33N 40°51' E 003°16'1312.9
2014-Jul-24 02:33N 40°56' E 003°01'1111.0
2014-Jul-24 01:33N 41°01' E 002°48'1211.7
2014-Jul-24 00:33N 41°07' E 002°35'1111.4
2014-Jul-23 23:33N 41°12' E 002°21'1110.8
2014-Jul-23 22:33N 41°19' E 002°10'1 0.0
2014-Jul-22 23:19N 41°20' E 002°09'0 0.0
2014-Jul-22 22:11N 41°20' E 002°09'1 1.5
2014-Jul-22 21:33N 41°20' E 002°10'1 0.3
2014-Jul-22 18:13N 41°20' E 002°11'0 0.0
2014-Jul-22 17:07N 41°20' E 002°11'0 0.0
2014-Jul-22 16:19N 41°20' E 002°11'0 0.0
2014-Jul-22 15:31N 41°20' E 002°11'0 0.0
2014-Jul-22 13:19N 41°20' E 002°11'0 0.0
2014-Jul-22 11:13N 41°20' E 002°11'0 0.0
2014-Jul-22 10:31N 41°20' E 002°11'0 0.0
2014-Jul-22 09:31N 41°20' E 002°11'0 0.0
2014-Jul-22 08:31N 41°20' E 002°11'0 0.0
2014-Jul-21 23:25N 41°20' E 002°11'0 0.0
2014-Jul-21 21:31N 41°20' E 002°11'0 0.0
2014-Jul-21 18:31N 41°20' E 002°11'0 0.0
2014-Jul-21 17:31N 41°20' E 002°11'0 0.0
2014-Jul-21 16:31N 41°20' E 002°11'0 0.0
2014-Jul-21 15:31N 41°20' E 002°11'0 0.0
2014-Jul-21 13:13N 41°20' E 002°11'0 0.0
2014-Jul-20 21:25N 41°20' E 002°11'0 0.1
2014-Jul-20 18:13N 41°20' E 002°11'0 0.0
2014-Jul-20 17:31N 41°20' E 002°11'0 0.0
2014-Jul-20 16:13N 41°20' E 002°11'0 0.1
2014-Jul-20 14:31N 41°20' E 002°11'0 0.0
2014-Jul-20 13:31N 41°20' E 002°11'0 0.0
2014-Jul-20 11:25N 41°20' E 002°11'0 0.0
2014-Jul-20 10:31N 41°20' E 002°11'0 0.0
2014-Jul-20 06:13N 41°19' E 002°11'0 0.1
2014-Jul-20 05:31N 41°20' E 002°11'0 0.1
2014-Jul-20 04:31N 41°20' E 002°11'0 0.0
2014-Jul-20 03:31N 41°20' E 002°11'0 0.0
2014-Jul-20 02:31N 41°20' E 002°11'0 0.0
2014-Jul-20 01:25N 41°20' E 002°11'0 0.0
2014-Jul-20 00:19N 41°20' E 002°11'0 0.1
2014-Jul-19 23:31N 41°20' E 002°11'0 0.0
2014-Jul-19 22:31N 41°19' E 002°11'0 0.1
2014-Jul-19 21:31N 41°19' E 002°11'4 4.3
2014-Jul-19 20:33N 41°15' E 002°11'1312.6
2014-Jul-19 19:33N 41°04' E 002°02'1313.1
2014-Jul-19 18:33N 40°53' E 001°55'1212.0
2014-Jul-19 17:33N 40°42' E 001°48'1312.6
2014-Jul-19 16:33N 40°31' E 001°40'1312.8
2014-Jul-19 15:33N 40°19' E 001°33'1212.5
2014-Jul-19 14:33N 40°08' E 001°25'1212.2
2014-Jul-19 13:33N 39°57' E 001°18'1212.1
2014-Jul-19 12:33N 39°46' E 001°11'1512.2
2014-Jul-19 11:19N 39°33' E 001°02'2512.5
2014-Jul-19 09:21N 39°11' E 000°47'1312.4
2014-Jul-19 08:17N 38°59' E 000°40'1212.3
2014-Jul-19 07:20N 38°49' E 000°33'1111.7
2014-Jul-19 06:25N 38°40' E 000°26'1011.9
2014-Jul-19 05:33N 38°31' E 000°19'2914.5
2014-Jul-19 03:31N 38°07' W 000°03'1312.5
2014-Jul-19 02:29N 37°56' W 000°11'1212.1
2014-Jul-19 01:31N 37°46' W 000°20'1212.3
2014-Jul-19 00:31N 37°36' W 000°28'25111.9
2014-Jul-18 03:26N 35°56' W 005°17'3 3.6
2014-Jul-18 02:33N 35°54' W 005°19'0 0.0
2014-Jul-18 01:33N 35°54' W 005°19'0 0.0
2014-Jul-18 00:34N 35°54' W 005°19'  
2014-Jul-15 16:32N 36°30' W 001°57'3912.2
2014-Jul-15 13:22N 36°38' W 001°10'1012.0
2014-Jul-15 12:33N 36°40' W 000°58'1212.1
2014-Jul-15 11:33N 36°43' W 000°44'1212.0
2014-Jul-15 10:33N 36°46' W 000°29'1312.1
2014-Jul-15 09:31N 36°50' W 000°14'9 9.8
2014-Jul-15 08:33N 36°53' W 000°03'2511.3
2014-Jul-15 06:22N 37°00' E 000°26'1011.5
2014-Jul-15 05:27N 37°02' E 000°39'3311.5
2014-Jul-15 02:33N 37°11' E 001°19'1111.3
2014-Jul-15 01:33N 37°14' E 001°33'1212.0
2014-Jul-15 00:33N 37°17' E 001°48'1512.5
2014-Jul-14 23:23N 37°21' E 002°05'911.4
2014-Jul-14 22:33N 37°24' E 002°17'1312.1
2014-Jul-14 21:30N 37°27' E 002°32'1112.0
2014-Jul-14 20:33N 37°30' E 002°46'1211.9
2014-Jul-14 19:33N 37°33' E 003°01'1211.9
2014-Jul-14 18:33N 37°36' E 003°15'1511.8
2014-Jul-14 17:15N 37°40' E 003°34'912.1
2014-Jul-14 16:30N 37°42' E 003°45'17 8.5
2014-Jul-14 14:32N 37°45' E 004°06'  

Dump ship's entire track history